Artas, South Dakota
Current Conditions -  °F | °C
As of 7:52 AM on Friday 31 Oct 2014 (Local Time) from KMBG Reporting Station
Clear Clear  
Wind Chill: 19°   Ceiling: Unl
Heat Index: 19°   Visibility: 10mi
Dew Point: 14°   Wind: 0mph
Humidity: 81%   Direction: NA
Pressure: 30.52"   Gusts: NA
Location:  45.7737°N, 99.5895°W
Report Text: KMBG 311252Z AUTO 00000KT 10SM CLR M07/M10 A3052 RMK AO2 SLP361 T10721100
Loading
Personal Weather Stations






























Interactive Weather Map
Tropical Storm Tracking
New forecast layout! Learn more

10-Day Weather Forecast

Advertisements
Track Severe Weather on mobile